createdAt,value
2017-08-26T00:00:55.525Z,62.24
2017-08-26T00:02:04.507Z,62.02
2017-08-26T00:03:13.916Z,62.02
2017-08-26T00:04:23.046Z,62.21
2017-08-26T00:05:32.222Z,61.92
2017-08-26T00:06:41.871Z,61.54
2017-08-26T00:07:50.871Z,61.92
2017-08-26T00:08:59.975Z,61.92
2017-08-26T00:10:09.020Z,61.92
2017-08-26T00:11:17.701Z,61.73
2017-08-26T00:12:26.715Z,61.92
2017-08-26T00:13:35.715Z,61.83
2017-08-26T00:14:44.537Z,62.21
2017-08-26T00:15:53.842Z,62.24
2017-08-26T00:17:03.127Z,62.31
2017-08-26T00:18:12.118Z,62.31
2017-08-26T00:19:21.093Z,62.31
2017-08-26T00:20:29.963Z,62.12
2017-08-26T00:21:39.584Z,62.21
2017-08-26T00:22:48.586Z,62.7
2017-08-26T00:23:58.221Z,62.79
2017-08-26T00:25:07.550Z,63.18
2017-08-26T00:26:16.848Z,62.98
2017-08-26T00:27:25.589Z,62.89
2017-08-26T00:28:34.884Z,63.18
2017-08-26T00:29:44.201Z,62.89
2017-08-26T00:30:53.841Z,62.86
2017-08-26T00:32:03.948Z,63.18
2017-08-26T00:33:12.950Z,62.98
2017-08-26T00:34:21.654Z,62.98
2017-08-26T00:35:31.279Z,62.98
2017-08-26T00:36:39.956Z,62.98
2017-08-26T00:37:49.417Z,62.79
2017-08-26T00:38:58.110Z,62.7
2017-08-26T00:40:07.083Z,62.89
2017-08-26T00:41:16.689Z,62.86
2017-08-26T00:42:25.699Z,63.08
2017-08-26T00:43:35.319Z,62.86
2017-08-26T00:44:44.289Z,63.18
2017-08-26T00:45:53.305Z,63.37
2017-08-26T00:47:01.986Z,63.15
2017-08-26T00:48:11.349Z,63.43
2017-08-26T00:49:20.808Z,63.34
2017-08-26T00:50:30.104Z,63.63
2017-08-26T00:51:39.114Z,63.53
2017-08-26T00:52:48.106Z,63.53
2017-08-26T00:53:57.409Z,63.34
2017-08-26T00:55:06.866Z,63.53
2017-08-26T00:56:15.851Z,63.53
2017-08-26T00:57:25.169Z,63.73
2017-08-26T00:58:34.483Z,63.53
2017-08-26T00:59:43.460Z,63.34
2017-08-26T01:00:52.627Z,63.82
2017-08-26T01:02:01.301Z,64.01
2017-08-26T01:03:09.974Z,64.11
2017-08-26T01:04:18.947Z,64.01
2017-08-26T01:05:28.874Z,63.53
2017-08-26T01:06:38.018Z,63.63
2017-08-26T01:07:47.309Z,63.63
2017-08-26T01:08:55.970Z,63.34
2017-08-26T01:10:05.264Z,63.63
2017-08-26T01:11:14.925Z,63.63
2017-08-26T01:12:23.890Z,63.73
2017-08-26T01:13:32.881Z,63.73
2017-08-26T01:14:41.854Z,63.63
2017-08-26T01:15:50.510Z,63.53
2017-08-26T01:17:00.134Z,63.63
2017-08-26T01:18:09.292Z,63.95
2017-08-26T01:19:18.618Z,63.76
2017-08-26T01:20:27.599Z,63.66
2017-08-26T01:21:36.591Z,63.37
2017-08-26T01:22:45.899Z,63.56
2017-08-26T01:23:55.549Z,63.76
2017-08-26T01:25:04.549Z,63.63
2017-08-26T01:26:13.538Z,63.56
2017-08-26T01:27:23.143Z,63.76
2017-08-26T01:28:32.120Z,63.73
2017-08-26T01:29:41.556Z,63.53
2017-08-26T01:30:50.541Z,63.53
2017-08-26T01:31:59.235Z,63.56
2017-08-26T01:33:08.855Z,63.47
2017-08-26T01:34:17.849Z,63.56
2017-08-26T01:35:26.972Z,63.76
2017-08-26T01:36:35.655Z,63.53
2017-08-26T01:37:44.625Z,63.37
2017-08-26T01:38:53.639Z,64.05
2017-08-26T01:40:02.279Z,64.14
2017-08-26T01:41:11.892Z,64.11
2017-08-26T01:42:20.931Z,64.01
2017-08-26T01:43:30.239Z,64.14
2017-08-26T01:44:39.216Z,63.66
2017-08-26T01:45:47.890Z,63.76
2017-08-26T01:46:57.343Z,63.76
2017-08-26T01:48:06.322Z,63.37
2017-08-26T01:49:15.317Z,63.85
2017-08-26T01:50:24.624Z,64.05
2017-08-26T01:51:33.612Z,64.05
2017-08-26T01:52:43.537Z,63.85
2017-08-26T01:53:52.526Z,63.66
2017-08-26T01:55:01.220Z,63.56
2017-08-26T01:56:10.527Z,63.85
2017-08-26T01:57:19.838Z,63.76
2017-08-26T01:58:29.483Z,63.47
2017-08-26T01:59:38.790Z,63.47
2017-08-26T02:00:48.422Z,63.08
2017-08-26T02:01:58.037Z,63.28
2017-08-26T02:03:07.037Z,63.66
2017-08-26T02:04:16.173Z,63.18
2017-08-26T02:05:25.489Z,63.66
2017-08-26T02:06:34.790Z,63.18
2017-08-26T02:07:44.106Z,63.28
2017-08-26T02:08:53.738Z,63.56
2017-08-26T02:10:03.387Z,63.66
2017-08-26T02:11:12.678Z,63.37
2017-08-26T02:12:21.660Z,63.37
2017-08-26T02:13:30.657Z,63.56
2017-08-26T02:14:39.669Z,63.37
2017-08-26T02:15:48.795Z,63.56
2017-08-26T02:16:57.775Z,63.66
2017-08-26T02:18:07.079Z,63.37
2017-08-26T02:19:16.071Z,63.37
2017-08-26T02:20:25.367Z,63.76
2017-08-26T02:21:34.404Z,63.66
2017-08-26T02:22:43.702Z,63.66
2017-08-26T02:23:53.342Z,64.14
2017-08-26T02:25:02.640Z,63.85
2017-08-26T02:26:11.332Z,63.76
2017-08-26T02:27:20.776Z,63.76
2017-08-26T02:28:29.469Z,63.76
2017-08-26T02:29:38.439Z,63.95
2017-08-26T02:30:47.728Z,64.05
2017-08-26T02:31:56.397Z,63.95
2017-08-26T02:33:05.861Z,63.85
2017-08-26T02:34:15.163Z,63.85
2017-08-26T02:35:24.530Z,63.95
2017-08-26T02:36:33.186Z,63.85
2017-08-26T02:37:42.161Z,63.85
2017-08-26T02:38:51.359Z,64.24
2017-08-26T02:40:00.040Z,64.14
2017-08-26T02:41:09.381Z,64.24
2017-08-26T02:42:18.368Z,64.14
2017-08-26T02:43:27.049Z,63.85
2017-08-26T02:44:36.185Z,64.24
2017-08-26T02:45:45.485Z,64.34
2017-08-26T02:46:54.781Z,64.63
2017-08-26T02:48:03.453Z,64.72
2017-08-26T02:49:12.434Z,64.72
2017-08-26T02:50:21.197Z,65.01
2017-08-26T02:51:29.854Z,64.92
2017-08-26T02:52:39.174Z,64.69
2017-08-26T02:53:48.482Z,64.53
2017-08-26T02:54:57.795Z,64.69
2017-08-26T02:56:07.128Z,65.2
2017-08-26T02:57:16.105Z,65.01
2017-08-26T02:58:25.452Z,64.98
2017-08-26T02:59:34.750Z,65.37
2017-08-26T03:00:44.364Z,65.27
2017-08-26T03:01:53.459Z,65.08
2017-08-26T03:03:02.765Z,65.37
2017-08-26T03:04:12.421Z,64.98
2017-08-26T03:05:21.119Z,65.37
2017-08-26T03:06:30.726Z,65.56
2017-08-26T03:07:40.464Z,65.66
2017-08-26T03:08:49.769Z,65.56
2017-08-26T03:09:59.087Z,65.85
2017-08-26T03:11:08.103Z,65.47
2017-08-26T03:12:17.398Z,65.75
2017-08-26T03:13:26.385Z,65.47
2017-08-26T03:14:35.678Z,65.66
2017-08-26T03:15:44.666Z,65.37
2017-08-26T03:16:54.299Z,65.37
2017-08-26T03:18:02.959Z,65.95
2017-08-26T03:19:11.957Z,66.01
2017-08-26T03:20:21.263Z,66.3
2017-08-26T03:21:29.942Z,66.11
2017-08-26T03:22:39.255Z,66.2
2017-08-26T03:23:48.953Z,66.01
2017-08-26T03:24:58.264Z,65.91
2017-08-26T03:26:07.260Z,66.2
2017-08-26T03:27:15.941Z,66.4
2017-08-26T03:28:25.860Z,66.3
2017-08-26T03:29:34.520Z,66.3
2017-08-26T03:30:43.942Z,66.01
2017-08-26T03:31:52.925Z,66.3
2017-08-26T03:33:01.929Z,65.85
2017-08-26T03:34:11.227Z,65.82
2017-08-26T03:35:20.257Z,65.66
2017-08-26T03:36:30.021Z,65.34
2017-08-26T03:37:39.003Z,65.66
2017-08-26T03:38:47.669Z,65.37
2017-08-26T03:39:56.662Z,65.66
2017-08-26T03:41:05.318Z,65.66
2017-08-26T03:42:14.445Z,65.75
2017-08-26T03:43:23.744Z,65.56
2017-08-26T03:44:33.041Z,66.14
2017-08-26T03:45:42.342Z,65.75
2017-08-26T03:46:51.015Z,65.75
2017-08-26T03:47:59.827Z,65.47
2017-08-26T03:49:08.502Z,65.47
2017-08-26T03:50:18.114Z,65.66
2017-08-26T03:51:27.420Z,65.56
2017-08-26T03:52:36.425Z,65.56
2017-08-26T03:53:45.545Z,64.98
2017-08-26T03:54:54.239Z,65.17
2017-08-26T03:56:03.245Z,65.37
2017-08-26T03:57:12.233Z,65.27
2017-08-26T03:58:21.226Z,65.37
2017-08-26T03:59:30.214Z,65.08
2017-08-26T04:00:38.894Z,64.98
2017-08-26T04:01:47.569Z,65.4
2017-08-26T04:02:56.872Z,65.2
2017-08-26T04:04:05.863Z,65.4
2017-08-26T04:05:15.306Z,65.47
2017-08-26T04:06:24.353Z,65.37
2017-08-26T04:07:33.978Z,65.37
2017-08-26T04:08:42.976Z,65.4
2017-08-26T04:09:52.294Z,64.92
2017-08-26T04:11:01.421Z,64.92
2017-08-26T04:12:10.077Z,65.01
2017-08-26T04:13:18.742Z,64.92
2017-08-26T04:14:28.359Z,65.01
2017-08-26T04:15:37.686Z,65.2
2017-08-26T04:16:47.314Z,65.11
2017-08-26T04:17:57.265Z,65.3
2017-08-26T04:19:06.271Z,64.72
2017-08-26T04:20:14.946Z,64.63
2017-08-26T04:21:23.917Z,64.72
2017-08-26T04:22:32.689Z,64.63
2017-08-26T04:23:41.989Z,64.53
2017-08-26T04:24:50.961Z,64.72
2017-08-26T04:25:59.956Z,64.72
2017-08-26T04:27:08.607Z,64.72
2017-08-26T04:28:18.369Z,64.43
2017-08-26T04:29:27.980Z,64.72
2017-08-26T04:30:36.694Z,64.72
2017-08-26T04:31:45.671Z,64.63
2017-08-26T04:32:54.993Z,64.82
2017-08-26T04:34:04.463Z,64.82
2017-08-26T04:35:13.758Z,64.72
2017-08-26T04:36:22.412Z,64.66
2017-08-26T04:37:31.094Z,64.72
2017-08-26T04:38:40.073Z,64.43
2017-08-26T04:39:49.216Z,65.24
2017-08-26T04:40:58.199Z,65.34
2017-08-26T04:42:07.492Z,65.3
2017-08-26T04:43:17.135Z,65.11
2017-08-26T04:44:25.813Z,65.4
2017-08-26T04:45:35.266Z,65.11
2017-08-26T04:46:44.245Z,65.5
2017-08-26T04:47:52.912Z,65.78
2017-08-26T04:49:01.892Z,65.2
2017-08-26T04:50:11.194Z,65.69
2017-08-26T04:51:20.726Z,65.4
2017-08-26T04:52:30.027Z,65.59
2017-08-26T04:53:39.036Z,65.5
2017-08-26T04:54:48.337Z,65.69
2017-08-26T04:55:57.316Z,65.5
2017-08-26T04:57:06.080Z,65.5
2017-08-26T04:58:15.394Z,65.27
2017-08-26T04:59:24.060Z,65.85
2017-08-26T05:00:33.042Z,65.95
2017-08-26T05:01:42.040Z,66.24
2017-08-26T05:02:50.704Z,66.24
2017-08-26T05:04:00.014Z,66.24
2017-08-26T05:05:09.925Z,66.14
2017-08-26T05:06:18.918Z,66.43
2017-08-26T05:07:28.206Z,66.24
2017-08-26T05:08:37.875Z,66.27
2017-08-26T05:09:46.554Z,66.24
2017-08-26T05:10:56.180Z,66.24
2017-08-26T05:12:05.171Z,66.14
2017-08-26T05:13:13.854Z,66.05
2017-08-26T05:14:23.147Z,66.08
2017-08-26T05:15:31.819Z,66.08
2017-08-26T05:16:40.489Z,65.98
2017-08-26T05:17:50.100Z,66.05
2017-08-26T05:18:58.763Z,65.95
2017-08-26T05:20:08.064Z,66.17
2017-08-26T05:21:17.056Z,66.08
2017-08-26T05:22:26.051Z,66.17
2017-08-26T05:23:35.342Z,66.08
2017-08-26T05:24:44.631Z,66.14
2017-08-26T05:25:53.767Z,66.27
2017-08-26T05:27:02.747Z,66.08
2017-08-26T05:28:11.740Z,66.33
2017-08-26T05:29:21.046Z,65.98
2017-08-26T05:30:30.416Z,66.17
2017-08-26T05:31:40.026Z,66.17
2017-08-26T05:32:49.331Z,65.56
2017-08-26T05:33:58.015Z,66.46
2017-08-26T05:35:07.634Z,66.46
2017-08-26T05:36:16.636Z,66.36
2017-08-26T05:37:25.773Z,66.08
2017-08-26T05:38:34.778Z,66.08
2017-08-26T05:39:44.079Z,65.88
2017-08-26T05:40:53.067Z,65.78
2017-08-26T05:42:02.062Z,65.5
2017-08-26T05:43:11.186Z,65.59
2017-08-26T05:44:20.170Z,65.5
2017-08-26T05:45:29.154Z,65.5
2017-08-26T05:46:38.369Z,65.78
2017-08-26T05:47:47.352Z,65.69
2017-08-26T05:48:56.344Z,65.59
2017-08-26T05:50:06.280Z,65.4
2017-08-26T05:51:15.278Z,65.5
2017-08-26T05:52:23.959Z,65.69
2017-08-26T05:53:32.949Z,65.4
2017-08-26T05:54:41.638Z,65.2
2017-08-26T05:55:50.608Z,65.4
2017-08-26T05:56:59.594Z,65.3
2017-08-26T05:58:08.913Z,65.3
2017-08-26T05:59:18.276Z,65.69
2017-08-26T06:00:27.272Z,65.69
2017-08-26T06:01:36.894Z,65.3
2017-08-26T06:02:45.548Z,65.5
2017-08-26T06:03:54.553Z,65.59
2017-08-26T06:05:03.550Z,65.78
2017-08-26T06:06:12.353Z,65.69
2017-08-26T06:07:21.351Z,65.69
2017-08-26T06:08:30.652Z,65.3
2017-08-26T06:09:39.312Z,65.5
2017-08-26T06:10:48.622Z,65.78
2017-08-26T06:11:58.486Z,65.59
2017-08-26T06:13:07.821Z,65.59
2017-08-26T06:14:17.251Z,65.3
2017-08-26T06:15:27.235Z,65.11
2017-08-26T06:16:35.901Z,65.34
2017-08-26T06:17:45.620Z,65.24
2017-08-26T06:18:54.661Z,65.43
2017-08-26T06:20:03.876Z,65.4
2017-08-26T06:21:13.288Z,66.2
2017-08-26T06:22:22.918Z,65.24
2017-08-26T06:23:31.910Z,65.69
2017-08-26T06:24:40.897Z,65.69
2017-08-26T06:25:49.906Z,65.59
2017-08-26T06:26:58.950Z,65.59
2017-08-26T06:28:07.643Z,65.59
2017-08-26T06:29:16.649Z,65.5
2017-08-26T06:30:25.963Z,65.88
2017-08-26T06:31:35.612Z,65.59
2017-08-26T06:32:44.922Z,65.69
2017-08-26T06:33:53.584Z,65.72
2017-08-26T06:35:02.565Z,65.82
2017-08-26T06:36:11.667Z,65.05
2017-08-26T06:37:20.962Z,65.05
2017-08-26T06:38:30.035Z,65.05
2017-08-26T06:39:39.720Z,65.14
2017-08-26T06:40:48.733Z,65.82
2017-08-26T06:41:57.719Z,65.14
2017-08-26T06:43:06.391Z,65.72
2017-08-26T06:44:15.697Z,65.82
2017-08-26T06:45:24.693Z,65.43
2017-08-26T06:46:33.832Z,65.05
2017-08-26T06:47:43.746Z,65.43
2017-08-26T06:48:52.708Z,65.43
2017-08-26T06:50:01.772Z,65.63
2017-08-26T06:51:11.398Z,65.43
2017-08-26T06:52:21.073Z,65.43
2017-08-26T06:53:29.752Z,65.24
2017-08-26T06:54:39.044Z,65.24
2017-08-26T06:55:48.015Z,65.14
2017-08-26T06:56:56.698Z,65.34
2017-08-26T06:58:06.334Z,65.63
2017-08-26T06:59:15.652Z,65.34
2017-08-26T07:00:24.668Z,65.34
2017-08-26T07:01:33.678Z,64.95
2017-08-26T07:02:42.337Z,65.17
2017-08-26T07:03:51.014Z,65.08
2017-08-26T07:05:00.023Z,65.08
2017-08-26T07:06:08.738Z,65.08
2017-08-26T07:07:17.388Z,65.56
2017-08-26T07:08:26.710Z,65.47
2017-08-26T07:09:35.368Z,65.27
2017-08-26T07:10:44.422Z,65.56
2017-08-26T07:11:54.051Z,65.08
2017-08-26T07:13:03.361Z,64.98
2017-08-26T07:14:12.657Z,65.08
2017-08-26T07:15:21.974Z,64.89
2017-08-26T07:16:31.085Z,65.17
2017-08-26T07:17:40.441Z,65.08
2017-08-26T07:18:49.235Z,65.08
2017-08-26T07:19:58.228Z,64.79
2017-08-26T07:21:07.108Z,64.5
2017-08-26T07:22:16.124Z,64.79
2017-08-26T07:23:25.213Z,64.43
2017-08-26T07:24:34.077Z,64.34
2017-08-26T07:25:43.212Z,63.85
2017-08-26T07:26:52.290Z,63.95
2017-08-26T07:28:02.500Z,64.24
2017-08-26T07:29:11.872Z,63.66
2017-08-26T07:30:20.553Z,63.66
2017-08-26T07:31:30.442Z,63.76
2017-08-26T07:32:39.436Z,63.56
2017-08-26T07:33:48.436Z,63.31
2017-08-26T07:34:57.730Z,63.59
2017-08-26T07:36:06.700Z,63.31
2017-08-26T07:37:16.651Z,63.01
2017-08-26T07:38:25.744Z,62.92
2017-08-26T07:39:34.440Z,63.11
2017-08-26T07:40:43.422Z,63.4
2017-08-26T07:41:52.740Z,63.21
2017-08-26T07:43:01.745Z,63.04
2017-08-26T07:44:10.712Z,63.04
2017-08-26T07:45:20.029Z,62.56
2017-08-26T07:46:28.680Z,62.37
2017-08-26T07:47:38.291Z,62.27
2017-08-26T07:48:47.279Z,62.37
2017-08-26T07:49:55.957Z,62.27
2017-08-26T07:51:04.934Z,62.56
2017-08-26T07:52:13.955Z,62.66
2017-08-26T07:53:22.921Z,62.56
2017-08-26T07:54:31.907Z,62.46
2017-08-26T07:55:41.206Z,62.46
2017-08-26T07:56:50.206Z,62.37
2017-08-26T07:57:59.513Z,62.59
2017-08-26T07:59:08.502Z,62.49
2017-08-26T08:00:17.815Z,62.49
2017-08-26T08:01:26.826Z,62.59
2017-08-26T08:02:36.137Z,62.2
2017-08-26T08:03:45.420Z,62.01
2017-08-26T08:04:54.740Z,62.1
2017-08-26T08:06:03.732Z,61.82
2017-08-26T08:07:12.393Z,62.01
2017-08-26T08:08:21.051Z,62.01
2017-08-26T08:09:29.707Z,61.52
2017-08-26T08:10:38.677Z,61.72
2017-08-26T08:11:47.662Z,61.65
2017-08-26T08:12:57.280Z,61.52
2017-08-26T08:14:06.573Z,61.36
2017-08-26T08:15:15.866Z,61.55
2017-08-26T08:16:25.161Z,61.65
2017-08-26T08:17:33.830Z,61.46
2017-08-26T08:18:43.115Z,61.75
2017-08-26T08:19:52.766Z,61.94
2017-08-26T08:21:01.436Z,61.94
2017-08-26T08:22:11.039Z,61.85
2017-08-26T08:23:19.688Z,61.85
2017-08-26T08:24:28.370Z,61.94
2017-08-26T08:25:37.725Z,61.75
2017-08-26T08:26:46.709Z,61.85
2017-08-26T08:27:55.687Z,61.55
2017-08-26T08:29:04.688Z,61.55
2017-08-26T08:30:13.992Z,61.85
2017-08-26T08:31:22.679Z,61.55
2017-08-26T08:32:32.287Z,61.65
2017-08-26T08:33:40.956Z,61.65
2017-08-26T08:34:49.943Z,61.55
2017-08-26T08:35:58.913Z,61.46
2017-08-26T08:37:07.569Z,61.55
2017-08-26T08:38:16.564Z,61.55
2017-08-26T08:39:26.195Z,61.46
2017-08-26T08:40:35.481Z,61.49
2017-08-26T08:41:44.199Z,61.46
2017-08-26T08:42:52.857Z,61.29
2017-08-26T08:44:01.526Z,61.39
2017-08-26T08:45:10.496Z,61.58
2017-08-26T08:46:19.795Z,61.49
2017-08-26T08:47:29.406Z,61.29
2017-08-26T08:48:38.396Z,61.58
2017-08-26T08:49:47.364Z,61.68
2017-08-26T08:50:56.027Z,61.68
2017-08-26T08:52:05.009Z,61.58
2017-08-26T08:53:15.099Z,61.58
2017-08-26T08:54:25.103Z,61.19
2017-08-26T08:55:35.680Z,61.49
2017-08-26T08:56:45.350Z,61.39
2017-08-26T08:57:54.710Z,61.49
2017-08-26T08:59:03.686Z,61.39
2017-08-26T09:00:12.987Z,61.88
2017-08-26T09:01:22.319Z,61.78
2017-08-26T09:02:31.953Z,61.78
2017-08-26T09:03:40.632Z,61.58
2017-08-26T09:04:49.296Z,62.04
2017-08-26T09:05:58.278Z,62.23
2017-08-26T09:07:06.933Z,62.23
2017-08-26T09:08:16.239Z,62.04
2017-08-26T09:09:25.222Z,62.43
2017-08-26T09:10:34.223Z,62.43
2017-08-26T09:11:43.519Z,62.43
2017-08-26T09:12:52.828Z,62.72
2017-08-26T09:14:02.429Z,62.72
2017-08-26T09:15:12.031Z,62.52
2017-08-26T09:16:21.033Z,62.43
2017-08-26T09:17:30.016Z,62.52
2017-08-26T09:18:38.999Z,62.23
2017-08-26T09:19:48.151Z,62.52
2017-08-26T09:20:57.445Z,62.43
2017-08-26T09:22:06.483Z,62.52
2017-08-26T09:23:17.181Z,62.62
2017-08-26T09:24:27.201Z,63.2
2017-08-26T09:25:37.809Z,62.62
2017-08-26T09:26:46.797Z,63.01
2017-08-26T09:27:55.795Z,63.1
2017-08-26T09:29:05.083Z,63.01
2017-08-26T09:30:14.077Z,63.2
2017-08-26T09:31:23.053Z,63.2
2017-08-26T09:32:32.364Z,63.01
2017-08-26T09:33:41.670Z,63.01
2017-08-26T09:34:50.974Z,62.82
2017-08-26T09:36:00.600Z,62.62
2017-08-26T09:37:09.282Z,62.72
2017-08-26T09:38:18.905Z,63.01
2017-08-26T09:39:27.564Z,63.2
2017-08-26T09:40:36.870Z,63.2
2017-08-26T09:41:46.489Z,62.91
2017-08-26T09:42:56.108Z,62.52
2017-08-26T09:44:05.425Z,62.62
2017-08-26T09:45:15.066Z,62.13
2017-08-26T09:46:24.703Z,62.52
2017-08-26T09:47:34.046Z,62.43
2017-08-26T09:48:43.700Z,62.43
2017-08-26T09:49:53.077Z,62.43
2017-08-26T09:51:02.084Z,62.62
2017-08-26T09:52:11.076Z,62.62
2017-08-26T09:53:20.073Z,63.1
2017-08-26T09:54:29.380Z,63.01
2017-08-26T09:55:38.690Z,63.01
2017-08-26T09:56:47.997Z,63.2
2017-08-26T09:57:57.072Z,62.82
2017-08-26T09:59:07.033Z,62.82
2017-08-26T10:00:16.012Z,62.72
2017-08-26T10:01:24.995Z,62.72
2017-08-26T10:02:33.986Z,63.1
2017-08-26T10:03:42.654Z,63.1
2017-08-26T10:04:51.650Z,63.01
2017-08-26T10:06:00.941Z,63.1
2017-08-26T10:07:09.646Z,63.1
2017-08-26T10:08:18.378Z,63.1
2017-08-26T10:09:27.714Z,62.62
2017-08-26T10:10:38.640Z,62.82
2017-08-26T10:11:47.965Z,62.91
2017-08-26T10:12:56.963Z,62.72
2017-08-26T10:14:06.289Z,63.1
2017-08-26T10:15:14.996Z,62.91
2017-08-26T10:16:23.694Z,63.4
2017-08-26T10:17:32.701Z,62.62
2017-08-26T10:18:42.064Z,63.2
2017-08-26T10:19:51.819Z,63.4
2017-08-26T10:21:00.839Z,63.4
2017-08-26T10:22:10.184Z,62.52
2017-08-26T10:23:18.894Z,62.82
2017-08-26T10:24:27.892Z,63.4
2017-08-26T10:25:36.561Z,62.91
2017-08-26T10:26:45.864Z,62.62
2017-08-26T10:27:55.173Z,62.52
2017-08-26T10:29:04.154Z,63.4
2017-08-26T10:30:13.137Z,62.72
2017-08-26T10:31:22.479Z,63.3
2017-08-26T10:32:31.487Z,63.49
2017-08-26T10:33:40.852Z,63.01
2017-08-26T10:34:49.891Z,62.52
2017-08-26T10:35:59.181Z,62.91
2017-08-26T10:37:08.194Z,62.91
2017-08-26T10:38:16.895Z,63.01
2017-08-26T10:39:26.229Z,63.01
2017-08-26T10:40:36.442Z,63.1
2017-08-26T10:41:45.443Z,63.2
2017-08-26T10:42:55.122Z,63.1
2017-08-26T10:44:04.413Z,62.82
2017-08-26T10:45:13.083Z,62.91
2017-08-26T10:46:22.101Z,63.3
2017-08-26T10:47:31.395Z,62.62
2017-08-26T10:48:40.190Z,63.4
2017-08-26T10:49:49.504Z,63.49
2017-08-26T10:50:58.186Z,63.4
2017-08-26T10:52:07.499Z,63.1
2017-08-26T10:53:16.823Z,63.1
2017-08-26T10:54:25.491Z,63.1
2017-08-26T10:55:34.820Z,62.98
2017-08-26T10:56:43.811Z,63.01
2017-08-26T10:57:53.107Z,62.98
2017-08-26T10:59:02.414Z,62.91
2017-08-26T11:00:11.403Z,62.98
2017-08-26T11:01:21.327Z,63.07
2017-08-26T11:02:30.008Z,63.1
2017-08-26T11:03:39.310Z,63.2
2017-08-26T11:04:48.309Z,63.07
2017-08-26T11:05:58.409Z,63.1
2017-08-26T11:07:07.420Z,63.2
2017-08-26T11:08:16.084Z,63.2
2017-08-26T11:09:25.687Z,63.3
2017-08-26T11:10:34.720Z,63.2
2017-08-26T11:11:43.766Z,63.3
2017-08-26T11:12:52.460Z,63.49
2017-08-26T11:14:01.477Z,63.3
2017-08-26T11:15:10.476Z,63.3
2017-08-26T11:16:19.797Z,63.01
2017-08-26T11:17:29.730Z,63.3
2017-08-26T11:18:39.053Z,63.2
2017-08-26T11:19:47.727Z,63.2
2017-08-26T11:20:56.723Z,63.17
2017-08-26T11:22:05.702Z,63.01
2017-08-26T11:23:14.682Z,63.3
2017-08-26T11:24:23.722Z,62.98
2017-08-26T11:25:32.724Z,63.27
2017-08-26T11:26:41.727Z,63.2
2017-08-26T11:27:50.712Z,63.4
2017-08-26T11:28:59.858Z,63.37
2017-08-26T11:30:08.645Z,63.46
2017-08-26T11:31:17.884Z,63.56
2017-08-26T11:32:27.212Z,63.75
2017-08-26T11:33:36.857Z,63.85
2017-08-26T11:34:45.512Z,63.85
2017-08-26T11:35:54.510Z,63.85
2017-08-26T11:37:03.809Z,63.56
2017-08-26T11:38:12.496Z,63.56
2017-08-26T11:39:21.827Z,63.56
2017-08-26T11:40:31.431Z,63.46
2017-08-26T11:41:40.425Z,63.37
2017-08-26T11:42:49.098Z,63.27
2017-08-26T11:43:57.787Z,63.46
2017-08-26T11:45:06.803Z,63.27
2017-08-26T11:46:15.794Z,63.01
2017-08-26T11:47:24.785Z,63.07
2017-08-26T11:48:33.771Z,63.17
2017-08-26T11:49:43.369Z,63.07
2017-08-26T11:50:52.336Z,63.3
2017-08-26T11:52:01.324Z,63.1
2017-08-26T11:53:10.611Z,63.17
2017-08-26T11:54:19.594Z,63.01
2017-08-26T11:55:29.005Z,63.1
2017-08-26T11:56:38.619Z,63.27
2017-08-26T11:57:47.403Z,63.27
2017-08-26T11:58:56.378Z,63.3
2017-08-26T12:00:05.987Z,63.2
2017-08-26T12:01:15.269Z,63.17
2017-08-26T12:02:24.261Z,63.2
2017-08-26T12:03:33.562Z,63.3
2017-08-26T12:04:42.241Z,63.2
2017-08-26T12:05:51.530Z,63.17
2017-08-26T12:07:01.148Z,63.59
2017-08-26T12:08:10.443Z,63.2
2017-08-26T12:09:19.733Z,63.2
2017-08-26T12:10:28.392Z,63.3
2017-08-26T12:11:37.996Z,63.3
2017-08-26T12:12:47.011Z,63.3
2017-08-26T12:13:55.679Z,63.1
2017-08-26T12:15:04.663Z,63.2
2017-08-26T12:16:13.997Z,63.2
2017-08-26T12:17:23.598Z,63.2
2017-08-26T12:18:32.568Z,63.07
2017-08-26T12:19:41.562Z,63.1
2017-08-26T12:20:50.562Z,63.2
2017-08-26T12:21:59.534Z,63.3
2017-08-26T12:23:08.214Z,63.2
2017-08-26T12:24:17.563Z,63.2
2017-08-26T12:25:26.553Z,63.2
2017-08-26T12:26:35.377Z,63.01
2017-08-26T12:27:44.367Z,62.98
2017-08-26T12:28:53.376Z,63.37
2017-08-26T12:30:02.405Z,63.17
2017-08-26T12:31:11.077Z,62.98
2017-08-26T12:32:20.103Z,62.91
2017-08-26T12:33:29.401Z,62.98
2017-08-26T12:34:38.406Z,63.01
2017-08-26T12:35:47.377Z,63.3
2017-08-26T12:36:56.139Z,63.2
2017-08-26T12:38:05.223Z,63.2
2017-08-26T12:39:14.244Z,63.2
2017-08-26T12:40:22.907Z,63.49
2017-08-26T12:41:31.919Z,63.2
2017-08-26T12:42:40.912Z,63.49
2017-08-26T12:43:49.653Z,63.1
2017-08-26T12:44:58.796Z,63.49
2017-08-26T12:46:08.826Z,63.49
2017-08-26T12:47:18.151Z,62.91
2017-08-26T12:48:26.932Z,62.91
2017-08-26T12:49:36.024Z,62.91
2017-08-26T12:50:45.385Z,63.1
2017-08-26T12:51:55.098Z,62.62
2017-08-26T12:53:04.507Z,62.62
2017-08-26T12:54:13.695Z,63.3
2017-08-26T12:55:23.593Z,62.52
2017-08-26T12:56:33.178Z,63.4
2017-08-26T12:57:42.485Z,63.2
2017-08-26T12:58:51.237Z,63.2
2017-08-26T12:59:59.892Z,62.62
2017-08-26T13:01:09.831Z,63.4
2017-08-26T13:02:18.946Z,62.52
2017-08-26T13:03:28.324Z,62.72
2017-08-26T13:04:37.040Z,63.3
2017-08-26T13:05:46.413Z,63.3
2017-08-26T13:06:55.153Z,63.3
2017-08-26T13:08:04.503Z,62.72
2017-08-26T13:09:13.795Z,62.82
2017-08-26T13:10:23.100Z,62.91
2017-08-26T13:11:32.786Z,63.3
2017-08-26T13:12:41.458Z,62.82
2017-08-26T13:13:51.134Z,63.1
2017-08-26T13:15:00.480Z,62.91
2017-08-26T13:16:09.476Z,63.01
2017-08-26T13:17:18.493Z,62.72
2017-08-26T13:18:27.514Z,62.91
2017-08-26T13:19:36.180Z,62.82
2017-08-26T13:20:45.809Z,62.62
2017-08-26T13:21:54.795Z,62.82
2017-08-26T13:23:03.506Z,62.82
2017-08-26T13:24:13.107Z,62.72
2017-08-26T13:25:21.809Z,63.2
2017-08-26T13:26:30.973Z,62.72
2017-08-26T13:27:40.496Z,62.82
2017-08-26T13:28:49.487Z,62.91
2017-08-26T13:29:59.234Z,63.01
2017-08-26T13:31:08.881Z,63.3
2017-08-26T13:32:17.898Z,63.01
2017-08-26T13:33:26.900Z,63.1
2017-08-26T13:34:35.941Z,63.01
2017-08-26T13:35:44.936Z,63.2
2017-08-26T13:36:53.934Z,62.62
2017-08-26T13:38:02.660Z,62.52
2017-08-26T13:39:11.968Z,62.43
2017-08-26T13:40:20.952Z,62.33
2017-08-26T13:41:30.575Z,62.62
2017-08-26T13:42:39.607Z,62.33
2017-08-26T13:43:48.269Z,62.62
2017-08-26T13:44:57.892Z,62.43
2017-08-26T13:46:06.889Z,62.62
2017-08-26T13:47:16.183Z,62.43
2017-08-26T13:48:25.170Z,62.62
2017-08-26T13:49:34.183Z,62.72
2017-08-26T13:50:42.844Z,62.46
2017-08-26T13:51:52.223Z,62.46
2017-08-26T13:53:01.238Z,62.46
2017-08-26T13:54:10.864Z,62.16
2017-08-26T13:55:19.871Z,61.98
2017-08-26T13:56:28.601Z,62.16
2017-08-26T13:57:37.948Z,61.98
2017-08-26T13:58:46.984Z,61.98
2017-08-26T13:59:56.041Z,61.88
2017-08-26T14:01:05.319Z,61.98
2017-08-26T14:02:14.303Z,61.98
2017-08-26T14:03:23.619Z,61.88
2017-08-26T14:04:32.762Z,61.98
2017-08-26T14:05:42.089Z,62.26
2017-08-26T14:06:51.423Z,61.88
2017-08-26T14:08:00.399Z,62.07
2017-08-26T14:09:09.736Z,61.88
2017-08-26T14:10:18.426Z,62.16
2017-08-26T14:11:28.030Z,62.46
2017-08-26T14:12:37.012Z,62.16
2017-08-26T14:13:45.994Z,62.16
2017-08-26T14:14:55.923Z,61.98
2017-08-26T14:16:05.552Z,62.07
2017-08-26T14:17:14.246Z,61.98
2017-08-26T14:18:23.240Z,61.98
2017-08-26T14:19:32.853Z,62.07
2017-08-26T14:20:41.842Z,61.98
2017-08-26T14:21:50.819Z,61.88
2017-08-26T14:22:59.788Z,61.98
2017-08-26T14:24:08.453Z,62.07
2017-08-26T14:25:18.090Z,61.98
2017-08-26T14:26:27.104Z,62.07
2017-08-26T14:27:35.800Z,62.07
2017-08-26T14:28:45.099Z,61.98
2017-08-26T14:29:54.085Z,62.26
2017-08-26T14:31:03.060Z,62.07
2017-08-26T14:32:12.698Z,62.07
2017-08-26T14:33:22.096Z,62.16
2017-08-26T14:34:31.070Z,62.07
2017-08-26T14:35:40.372Z,62.07
2017-08-26T14:36:49.360Z,62.16
2017-08-26T14:37:58.047Z,62.16
2017-08-26T14:39:07.371Z,62.36
2017-08-26T14:40:16.428Z,62.16
2017-08-26T14:41:25.711Z,62.16
2017-08-26T14:42:34.364Z,62.16
2017-08-26T14:43:43.033Z,62.07
2017-08-26T14:44:52.342Z,62.16
2017-08-26T14:46:01.009Z,62.16
2017-08-26T14:47:09.989Z,62.26
2017-08-26T14:48:18.646Z,62.36
2017-08-26T14:49:28.309Z,61.88
2017-08-26T14:50:37.920Z,62.55
2017-08-26T14:51:46.882Z,62.46
2017-08-26T14:52:55.843Z,62.07
2017-08-26T14:54:04.499Z,62.46
2017-08-26T14:55:13.470Z,62.46
2017-08-26T14:56:22.482Z,62.36